This is the latest recevied weather packets stored in our database for station/object LB9CG. If no packets are shown the sender has not sent any weather packets the latest 10 day(s).
| Time | Temp. | Humidity | Pressure | Rain* | Wind** | Luminosity | Snow |
|---|---|---|---|---|---|---|---|
| 1777978237 | 2.78° C | 84% | 1003.1 hPa | 0 mm | - | - | - |
| 1777974617 | 4.44° C | 83% | 1002.7 hPa | 0 mm | - | - | - |
| 1777968017 | 4.44° C | 87% | 1002.2 hPa | 0 mm | - | - | - |
| 1777966817 | 3.89° C | 89% | 1002.2 hPa | 0 mm | - | - | - |
| 1777961436 | 3.89° C | 90% | 1001.7 hPa | 0 mm | - | - | - |
| 1777959617 | 1.11° C | 95% | 1001.5 hPa | 0 mm | - | - | - |
| 1777957257 | 0.56° C | 96% | 1001.6 hPa | 0 mm | - | - | - |
| 1777955416 | 0.56° C | 96% | 1001.7 hPa | 0 mm | - | - | - |
| 1777951216 | 0.56° C | 96% | 1001.2 hPa | 0 mm | - | - | - |
| 1777950616 | 0.56° C | 96% | 1001.3 hPa | 0 mm | - | - | - |
| 1777947016 | 0.56° C | 95% | 1001 hPa | 0 mm | - | - | - |
| 1777946416 | 0.56° C | 94% | 1000.8 hPa | 0 mm | - | - | - |
| 1777944016 | 0.56° C | 93% | 1000.6 hPa | 0 mm | - | - | - |
| 1777941016 | 1.11° C | 94% | 1000.6 hPa | 0 mm | - | - | - |
| 1777940436 | 0.56° C | 95% | 1000.5 hPa | 0 mm | - | - | - |
| 1777932617 | 1.67° C | 90% | 1000.3 hPa | 0 mm | - | - | - |
| 1777931416 | 1.67° C | 90% | 1000.2 hPa | 0 mm | - | - | - |
| 1777930216 | 1.11° C | 90% | 1000 hPa | 0 mm | - | - | - |
| 1777928416 | 1.11° C | 90% | 999.9 hPa | 0 mm | - | - | - |
| 1777927216 | 1.67° C | 93% | 999.6 hPa | 0 mm | - | - | - |
| 1777918838 | 2.78° C | 92% | 998.6 hPa | 0 mm | - | - | - |
| 1777918238 | 2.78° C | 93% | 998.5 hPa | 0 mm | - | - | - |
| 1777916417 | 2.78° C | 93% | 998.2 hPa | 0 mm | - | - | - |
| 1777911017 | 2.22° C | 94% | 997.1 hPa | 0 mm | - | - | - |
| 1777908617 | 1.67° C | 95% | 996.4 hPa | 0 mm | - | - | - |
* Rain latest hour (hover to see other rain measurements)
** Current wind speed in m/s (hover to see current wind gust speed)